Time;durP1;ratioP1;P1;durP2;ratioP2;P2;SDS_P1;SDS_P2;PMS_P1;PMS_P2;Temp;Humidity;BMP_temperature;BMP_pressure;BME280_temperature;BME280_humidity;BME280_pressure;Samples;Min_cycle;Max_cycle;Signal;HPM_P1;HPM_P2
2024/01/12 00:02:39;;;;;;;9.10;8.20;;;;;;;0.46;100.00;103238.78;6245480;28;20227;-66
2024/01/12 00:06:00;;;;;;;8.50;7.70;;;;;;;0.62;100.00;103234.22;6253470;28;20517;-67
2024/01/12 00:09:21;;;;;;;8.60;7.67;;;;;;;0.66;100.00;103228.88;6250276;28;20235;-67
2024/01/12 00:12:42;;;;;;;7.43;6.73;;;;;;;0.59;100.00;103234.22;6248406;28;20239;-66
2024/01/12 00:16:08;;;;;;;10.03;9.03;;;;;;;0.45;100.00;103233.50;6251458;28;20240;-66
2024/01/12 00:19:29;;;;;;;13.33;9.47;;;;;;;0.38;100.00;103239.72;6247930;28;20235;-66
2024/01/12 00:22:50;;;;;;;10.20;9.20;;;;;;;0.41;100.00;103242.38;6239286;28;20255;-67
2024/01/12 00:26:11;;;;;;;8.53;6.40;;;;;;;0.37;100.00;103243.28;6249655;28;20311;-66
2024/01/12 00:29:32;;;;;;;9.00;7.20;;;;;;;0.24;100.00;103245.16;6244213;28;20232;-66
2024/01/12 00:32:54;;;;;;;9.07;7.53;;;;;;;0.12;100.00;103237.31;6248684;28;20236;-65
2024/01/12 00:36:15;;;;;;;11.57;8.33;;;;;;;0.07;100.00;103232.94;6232662;28;20260;-66
2024/01/12 00:39:36;;;;;;;9.10;8.20;;;;;;;0.05;100.00;103242.66;6246399;28;20227;-66
2024/01/12 00:42:57;;;;;;;9.60;7.50;;;;;;;0.16;100.00;103231.09;6250211;28;20224;-66
2024/01/12 00:46:18;;;;;;;8.27;7.57;;;;;;;0.22;100.00;103224.84;6249104;28;20244;-66
2024/01/12 00:49:40;;;;;;;8.50;7.80;;;;;;;0.17;100.00;103224.88;6251429;28;20231;-67
2024/01/12 00:53:02;;;;;;;7.93;7.13;;;;;;;0.00;100.00;103227.69;6250807;28;20236;-67
2024/01/12 00:56:23;;;;;;;7.83;7.23;;;;;;;-0.14;100.00;103220.72;6252343;28;20315;-66
2024/01/12 00:59:43;;;;;;;7.77;7.03;;;;;;;-0.15;100.00;103229.56;6250011;28;20333;-66
2024/01/12 01:03:06;;;;;;;7.13;6.50;;;;;;;-0.19;100.00;103231.34;6226820;28;20310;-66
2024/01/12 01:06:28;;;;;;;8.03;7.00;;;;;;;-0.30;100.00;103235.84;6255773;28;20227;-66
2024/01/12 01:09:49;;;;;;;6.63;6.03;;;;;;;-0.28;100.00;103228.78;6255205;28;20511;-66
2024/01/12 01:13:10;;;;;;;7.17;6.17;;;;;;;-0.33;100.00;103225.25;6252620;28;20267;-66
2024/01/12 01:16:31;;;;;;;8.40;7.53;;;;;;;-0.47;100.00;103231.53;6254865;28;20239;-67
2024/01/12 01:19:52;;;;;;;8.33;7.53;;;;;;;-0.38;100.00;103240.31;6253237;28;20504;-65
2024/01/12 01:23:15;;;;;;;7.30;6.70;;;;;;;-0.38;100.00;103245.63;6251711;28;20255;-67
2024/01/12 01:26:36;;;;;;;6.37;5.87;;;;;;;-0.09;100.00;103234.81;6253652;28;20239;-67
2024/01/12 01:29:57;;;;;;;11.97;8.07;;;;;;;-0.09;100.00;103234.81;6256421;28;20235;-66
2024/01/12 01:33:17;;;;;;;8.43;7.10;;;;;;;-0.17;100.00;103232.22;6255777;28;20866;-66
2024/01/12 01:36:38;;;;;;;7.17;6.47;;;;;;;-0.02;100.00;103237.41;6255191;28;20258;-66
2024/01/12 01:40:02;;;;;;;11.87;7.37;;;;;;;-0.21;100.00;103242.88;6256269;28;20243;-66
2024/01/12 01:43:23;;;;;;;9.03;8.33;;;;;;;-0.26;100.00;103227.00;6254217;28;20515;-66
2024/01/12 01:46:44;;;;;;;18.13;9.90;;;;;;;-0.57;100.00;103224.53;6256314;28;20236;-66
2024/01/12 01:50:06;;;;;;;23.57;8.83;;;;;;;-0.77;100.00;103224.59;6254129;28;20526;-67
2024/01/12 01:53:27;;;;;;;9.77;8.50;;;;;;;-0.60;100.00;103224.53;6255509;28;20233;-67
2024/01/12 01:56:50;;;;;;;9.40;7.17;;;;;;;-0.41;100.00;103216.47;6254666;28;20231;-67
2024/01/12 02:00:12;;;;;;;10.93;8.20;;;;;;;-0.49;100.00;103228.00;6254739;28;20255;-66
2024/01/12 02:03:34;;;;;;;13.07;6.63;;;;;;;-0.73;100.00;103221.06;6251350;28;20228;-66
2024/01/12 02:06:55;;;;;;;8.70;6.63;;;;;;;-0.66;100.00;103211.31;6254782;28;20586;-67
2024/01/12 02:10:16;;;;;;;9.20;7.63;;;;;;;-0.54;100.00;103203.34;6250125;28;20609;-66
2024/01/12 02:13:38;;;;;;;8.57;7.77;;;;;;;-0.47;100.00;103205.94;6249113;28;20265;-66
2024/01/12 02:16:59;;;;;;;7.83;7.10;;;;;;;-0.37;100.00;103204.09;6246227;28;20227;-67
2024/01/12 02:20:20;;;;;;;8.70;7.63;;;;;;;-0.30;100.00;103200.53;6253233;28;20256;-67
2024/01/12 02:23:42;;;;;;;9.13;8.43;;;;;;;-0.15;100.00;103201.28;6251174;28;20232;-67
2024/01/12 02:27:04;;;;;;;8.43;6.73;;;;;;;-0.30;100.00;103196.09;6223543;28;20239;-67
2024/01/12 02:30:25;;;;;;;6.73;5.97;;;;;;;-0.70;100.00;103207.81;6254623;28;20236;-66
2024/01/12 02:33:48;;;;;;;8.67;7.03;;;;;;;-0.40;100.00;103202.38;6255778;28;20236;-66
2024/01/12 02:37:09;;;;;;;7.97;7.27;;;;;;;-0.32;100.00;103182.00;6257015;28;20344;-67
2024/01/12 02:40:31;;;;;;;8.03;7.03;;;;;;;-0.38;100.00;103194.41;6255182;28;20223;-66
2024/01/12 02:43:52;;;;;;;7.37;6.57;;;;;;;-0.22;100.00;103196.94;6259173;28;20228;-65
2024/01/12 02:47:13;;;;;;;13.50;8.63;;;;;;;-0.86;100.00;103187.63;6233903;28;20595;-67
2024/01/12 02:50:34;;;;;;;6.80;6.17;;;;;;;-0.78;100.00;103193.75;6253282;28;20231;-66
2024/01/12 02:53:55;;;;;;;9.73;6.40;;;;;;;-0.75;100.00;103196.34;6250298;28;20323;-66
2024/01/12 02:57:17;;;;;;;6.83;6.00;;;;;;;-0.86;100.00;103193.78;6242084;28;20239;-66
2024/01/12 03:00:38;;;;;;;7.43;6.73;;;;;;;-0.57;100.00;103188.34;6242368;28;20315;-66
2024/01/12 03:03:59;;;;;;;10.67;8.17;;;;;;;-0.67;100.00;103177.81;6244181;28;20236;-66
2024/01/12 03:07:20;;;;;;;19.87;9.73;;;;;;;-1.09;100.00;103181.53;6239836;28;20223;-67
2024/01/12 03:10:41;;;;;;;27.03;10.67;;;;;;;-1.37;100.00;103179.84;6246945;28;20230;-67
2024/01/12 03:14:03;;;;;;;17.70;9.87;;;;;;;-1.57;100.00;103174.63;6244309;28;20235;-66
2024/01/12 03:17:24;;;;;;;41.67;10.53;;;;;;;-1.54;100.00;103168.47;6249048;28;20330;-67
2024/01/12 03:20:45;;;;;;;51.67;12.73;;;;;;;-1.57;100.00;103164.03;6245766;28;20239;-66
2024/01/12 03:24:06;;;;;;;18.20;9.10;;;;;;;-1.29;100.00;103164.81;6246704;28;20236;-67
2024/01/12 03:27:28;;;;;;;20.30;9.47;;;;;;;-1.20;100.00;103168.34;6250735;28;20314;-66
2024/01/12 03:30:50;;;;;;;15.57;8.43;;;;;;;-1.64;100.00;103155.25;6241993;28;20618;-65
2024/01/12 03:34:11;;;;;;;18.60;7.20;;;;;;;-1.86;100.00;103145.59;6226501;28;20319;-66
2024/01/12 03:37:32;;;;;;;13.70;8.93;;;;;;;-1.64;100.00;103139.38;6239206;28;20231;-67
2024/01/12 03:40:53;;;;;;;12.53;7.27;;;;;;;-1.78;100.00;103135.00;6248807;28;20256;-66
2024/01/12 03:44:14;;;;;;;45.77;11.33;;;;;;;-1.72;100.00;103129.69;6247352;28;20235;-67
2024/01/12 03:47:36;;;;;;;12.00;9.70;;;;;;;-1.43;100.00;103129.63;6249178;28;20232;-66
2024/01/12 03:50:57;;;;;;;12.97;8.77;;;;;;;-1.50;100.00;103133.19;6247001;28;20232;-67
2024/01/12 03:54:18;;;;;;;31.63;11.00;;;;;;;-1.74;100.00;103127.06;6251989;28;21311;-66
2024/01/12 03:57:39;;;;;;;16.07;8.40;;;;;;;-1.43;100.00;103135.78;6251391;28;20235;-66
2024/01/12 04:00:59;;;;;;;15.53;11.17;;;;;;;-1.45;100.00;103128.75;6253274;28;20223;-66
2024/01/12 04:04:21;;;;;;;19.33;10.63;;;;;;;-1.62;100.00;103107.66;6250198;28;22501;-66
2024/01/12 04:07:43;;;;;;;15.77;11.13;;;;;;;-1.60;100.00;103103.22;6240771;28;20232;-67
2024/01/12 04:11:03;;;;;;;20.70;11.80;;;;;;;-1.61;100.00;103107.63;6241697;28;20316;-67
2024/01/12 04:14:25;;;;;;;14.37;11.60;;;;;;;-1.80;100.00;103102.41;6247240;28;20241;-66
2024/01/12 04:17:46;;;;;;;11.80;10.57;;;;;;;-1.72;100.00;103104.16;6251586;28;20543;-67
2024/01/12 04:21:08;;;;;;;12.83;11.17;;;;;;;-1.57;100.00;103105.00;6249632;28;20227;-67
2024/01/12 04:24:29;;;;;;;18.83;13.63;;;;;;;-1.33;100.00;103099.59;6251479;28;20973;-67
2024/01/12 04:27:50;;;;;;;17.13;11.27;;;;;;;-1.35;100.00;103086.38;6249854;28;20228;-66
2024/01/12 04:31:11;;;;;;;21.20;15.73;;;;;;;-1.65;100.00;103095.31;6251403;28;20227;-66
2024/01/12 04:34:35;;;;;;;22.57;15.30;;;;;;;-1.81;100.00;103090.97;6253837;28;20622;-66
2024/01/12 04:37:59;;;;;;;21.70;16.03;;;;;;;-1.77;100.00;103087.41;6254680;28;20244;-67
2024/01/12 04:41:19;;;;;;;18.30;11.80;;;;;;;-1.81;100.00;103080.38;6254493;28;20236;-66
2024/01/12 04:44:42;;;;;;;18.53;10.93;;;;;;;-1.84;100.00;103079.53;6255213;28;20256;-67
2024/01/12 04:48:03;;;;;;;16.07;8.97;;;;;;;-1.92;100.00;103086.59;6253277;28;20236;-67
2024/01/12 04:51:24;;;;;;;15.93;10.47;;;;;;;-1.81;100.00;103087.44;6247620;28;20228;-67
2024/01/12 04:54:46;;;;;;;10.83;9.03;;;;;;;-1.84;100.00;103080.41;6252920;28;20228;-67
2024/01/12 04:58:07;;;;;;;13.17;10.13;;;;;;;-1.74;100.00;103079.50;6249288;28;20228;-67
2024/01/12 05:01:28;;;;;;;8.47;7.63;;;;;;;-1.88;100.00;103072.50;6254058;28;20316;-67
2024/01/12 05:04:49;;;;;;;16.27;11.00;;;;;;;-1.85;100.00;103072.47;6255359;28;20231;-67
2024/01/12 05:08:10;;;;;;;9.70;8.67;;;;;;;-1.82;100.00;103077.75;6250047;28;20243;-67
2024/01/12 05:11:33;;;;;;;16.73;8.43;;;;;;;-2.05;100.00;103083.09;6258198;28;20649;-67
2024/01/12 05:14:53;;;;;;;14.33;8.07;;;;;;;-1.97;100.00;103081.31;6258583;28;20244;-67
2024/01/12 05:18:15;;;;;;;17.77;5.87;;;;;;;-2.03;100.00;103076.03;6254984;28;20228;-66
2024/01/12 05:21:35;;;;;;;13.67;6.57;;;;;;;-2.17;100.00;103076.94;6251226;28;20322;-67
2024/01/12 05:24:56;;;;;;;12.43;7.13;;;;;;;-2.14;100.00;103076.91;6254888;28;20244;-66
2024/01/12 05:28:19;;;;;;;9.37;8.47;;;;;;;-2.15;100.00;103080.47;6254781;28;20594;-66
2024/01/12 05:31:40;;;;;;;7.27;6.57;;;;;;;-2.02;100.00;103082.19;6255082;28;20613;-66
2024/01/12 05:35:01;;;;;;;13.23;7.53;;;;;;;-2.17;100.00;103088.38;6257398;28;20239;-65
2024/01/12 05:38:22;;;;;;;8.93;5.83;;;;;;;-2.13;100.00;103082.22;6249931;28;20236;-67
2024/01/12 05:41:42;;;;;;;8.53;7.73;;;;;;;-2.03;100.00;103077.78;6251552;28;20235;-66
2024/01/12 05:45:06;;;;;;;5.90;5.40;;;;;;;-1.86;100.00;103074.25;6242923;28;20729;-65
2024/01/12 05:48:27;;;;;;;7.83;5.60;;;;;;;-1.80;100.00;103075.97;6251797;28;20239;-66
2024/01/12 05:51:48;;;;;;;7.37;6.33;;;;;;;-1.74;100.00;103074.22;6256699;28;20703;-66
2024/01/12 05:55:09;;;;;;;7.97;6.87;;;;;;;-1.57;100.00;103070.63;6247191;28;20617;-66
2024/01/12 05:58:30;;;;;;;8.13;6.53;;;;;;;-1.42;100.00;103076.75;6242038;28;20228;-66
2024/01/12 06:01:54;;;;;;;8.37;7.33;;;;;;;-1.77;100.00;103083.88;6249017;28;20244;-67
2024/01/12 06:05:14;;;;;;;11.17;5.83;;;;;;;-1.83;100.00;103083.91;6253584;28;20355;-67
2024/01/12 06:08:35;;;;;;;5.43;4.93;;;;;;;-0.74;100.00;103083.41;6247139;28;20240;-67
2024/01/12 06:11:56;;;;;;;9.07;7.27;;;;;;;-0.61;100.00;103083.31;6248402;28;20232;-66
2024/01/12 06:15:17;;;;;;;10.43;7.17;;;;;;;-1.58;100.00;103087.34;6250180;28;20243;-67
2024/01/12 06:18:40;;;;;;;8.53;7.60;;;;;;;-1.60;100.00;103095.31;6244979;28;20235;-66
2024/01/12 06:22:01;;;;;;;10.83;9.73;;;;;;;-1.80;100.00;103090.09;6242452;28;20240;-66
2024/01/12 06:25:23;;;;;;;7.03;6.13;;;;;;;-1.70;100.00;103096.22;6243878;28;20240;-67
2024/01/12 06:28:44;;;;;;;9.53;8.50;;;;;;;-1.82;100.00;103091.84;6246233;28;20885;-68
2024/01/12 06:32:05;;;;;;;10.37;9.27;;;;;;;-1.95;100.00;103100.69;6246343;28;20525;-68
2024/01/12 06:35:27;;;;;;;9.40;8.57;;;;;;;-1.77;100.00;103099.75;6243015;28;20514;-68
2024/01/12 06:38:48;;;;;;;7.73;7.03;;;;;;;-1.80;100.00;103103.31;6240420;28;20632;-68
2024/01/12 06:42:09;;;;;;;10.53;6.40;;;;;;;-1.73;100.00;103098.84;6244186;28;20227;-68
2024/01/12 06:45:30;;;;;;;8.27;7.43;;;;;;;-1.95;100.00;103091.88;6255452;28;20236;-68
2024/01/12 06:48:51;;;;;;;9.87;5.90;;;;;;;-2.00;100.00;103096.31;6236489;28;20557;-68
2024/01/12 06:52:14;;;;;;;10.27;7.53;;;;;;;-1.67;100.00;103090.94;6224576;28;20804;-67
2024/01/12 06:55:35;;;;;;;12.20;8.57;;;;;;;-1.95;100.00;103086.59;6242707;28;20247;-66
2024/01/12 06:58:56;;;;;;;11.70;8.67;;;;;;;-1.87;100.00;103090.09;6245623;28;20618;-68
2024/01/12 07:02:18;;;;;;;9.53;8.37;;;;;;;-1.87;100.00;103084.81;6230703;28;20594;-68
2024/01/12 07:05:39;;;;;;;12.97;7.93;;;;;;;-1.70;100.00;103097.09;6251532;28;20259;-68
2024/01/12 07:09:01;;;;;;;9.97;8.17;;;;;;;-1.65;100.00;103092.66;6247010;28;20314;-68
2024/01/12 07:12:22;;;;;;;17.10;9.03;;;;;;;-1.69;100.00;103085.63;6248214;28;20232;-69
2024/01/12 07:15:43;;;;;;;11.37;9.13;;;;;;;-1.70;100.00;103075.06;6249925;28;20314;-68
2024/01/12 07:19:04;;;;;;;23.10;10.50;;;;;;;-1.80;100.00;103061.00;6249447;28;20239;-69
2024/01/12 07:22:25;;;;;;;14.30;8.17;;;;;;;-2.06;100.00;103076.03;6242115;28;20232;-68
2024/01/12 07:25:47;;;;;;;13.23;9.77;;;;;;;-1.92;100.00;103084.81;6254092;28;20231;-69
2024/01/12 07:29:08;;;;;;;11.63;8.70;;;;;;;-1.73;100.00;103073.31;6245577;28;20529;-68
2024/01/12 07:32:29;;;;;;;13.70;10.00;;;;;;;-1.45;100.00;103065.28;6248154;28;20290;-68
2024/01/12 07:35:50;;;;;;;16.53;10.37;;;;;;;-1.42;100.00;103063.53;6239110;28;20233;-68
2024/01/12 07:39:12;;;;;;;15.63;9.87;;;;;;;-1.80;100.00;103070.69;6248736;28;20229;-68
2024/01/12 07:42:35;;;;;;;18.87;11.47;;;;;;;-1.84;100.00;103067.19;6247006;28;20629;-70
2024/01/12 07:45:55;;;;;;;19.57;8.90;;;;;;;-1.89;100.00;103061.03;6251502;28;20232;-68
2024/01/12 07:49:16;;;;;;;13.87;7.40;;;;;;;-1.81;100.00;103037.22;6262276;28;20821;-67
2024/01/12 07:52:37;;;;;;;19.67;10.33;;;;;;;-1.82;100.00;103027.53;6250845;28;20615;-70
2024/01/12 07:55:58;;;;;;;15.67;7.10;;;;;;;-1.76;100.00;103022.22;6253239;28;20236;-67
2024/01/12 07:59:21;;;;;;;22.60;10.43;;;;;;;-1.69;100.00;103010.75;6255897;28;20567;-67
2024/01/12 08:02:42;;;;;;;25.37;13.13;;;;;;;-1.43;100.00;103000.91;6241395;28;20232;-68
2024/01/12 08:06:03;;;;;;;18.87;10.47;;;;;;;-1.38;100.00;102995.63;6254708;28;20239;-69
2024/01/12 08:09:24;;;;;;;12.00;7.63;;;;;;;-1.38;100.00;103003.53;6251692;28;20251;-68
2024/01/12 08:12:45;;;;;;;20.03;12.27;;;;;;;-1.33;100.00;102992.03;6250424;28;20227;-68
2024/01/12 08:16:07;;;;;;;17.87;11.07;;;;;;;-1.23;100.00;102993.72;6258550;28;20247;-68
2024/01/12 08:19:28;;;;;;;14.80;8.93;;;;;;;-1.10;100.00;102989.25;6247192;28;20325;-68
2024/01/12 08:22:49;;;;;;;16.73;9.07;;;;;;;-1.05;100.00;102982.16;6249505;28;20235;-67
2024/01/12 08:26:10;;;;;;;14.23;9.20;;;;;;;-0.95;100.00;102982.09;6252763;28;20228;-68
2024/01/12 08:29:31;;;;;;;13.43;9.37;;;;;;;-0.78;100.00;102981.06;6251413;28;20227;-67
2024/01/12 08:32:54;;;;;;;15.37;10.50;;;;;;;-0.64;100.00;102980.06;6246952;28;20600;-66
2024/01/12 08:36:14;;;;;;;17.10;13.20;;;;;;;-0.57;100.00;102975.59;6259095;28;20238;-68
2024/01/12 08:39:35;;;;;;;18.10;10.87;;;;;;;-0.52;100.00;102965.84;6243951;28;20231;-68
2024/01/12 08:42:57;;;;;;;27.67;12.20;;;;;;;-0.58;100.00;102974.69;6244429;28;20516;-69
2024/01/12 08:46:18;;;;;;;18.40;10.63;;;;;;;-0.50;100.00;102970.19;6217863;28;20260;-67
2024/01/12 08:49:41;;;;;;;16.80;10.70;;;;;;;-0.45;100.00;102963.09;6233240;28;20334;-68
2024/01/12 08:53:02;;;;;;;24.07;13.03;;;;;;;-0.42;100.00;102944.53;6249262;28;20229;-67
2024/01/12 08:56:23;;;;;;;17.00;10.07;;;;;;;-0.33;100.00;102948.84;6259930;28;20227;-67
2024/01/12 08:59:44;;;;;;;12.70;8.80;;;;;;;0.02;100.00;102952.00;6245463;28;20212;-67
2024/01/12 09:03:05;;;;;;;12.27;10.83;;;;;;;0.12;100.00;102939.50;6244804;28;20228;-68
2024/01/12 09:06:28;;;;;;;11.50;10.30;;;;;;;0.27;100.00;102947.25;6254697;28;20224;-66
2024/01/12 09:09:49;;;;;;;13.87;10.47;;;;;;;0.38;100.00;102946.19;6244637;28;20331;-67
2024/01/12 09:13:10;;;;;;;14.70;12.03;;;;;;;0.33;100.00;102955.13;6255836;28;20235;-67
2024/01/12 09:16:31;;;;;;;13.67;9.63;;;;;;;0.38;100.00;102959.47;6257546;28;21131;-67
2024/01/12 09:19:51;;;;;;;13.07;10.47;;;;;;;0.30;100.00;102952.50;6239515;28;20516;-67
2024/01/12 09:23:14;;;;;;;13.47;10.23;;;;;;;0.34;100.00;102939.19;6258791;28;20227;-67
2024/01/12 09:26:35;;;;;;;15.40;10.47;;;;;;;0.43;100.00;102936.41;6252791;28;20579;-68
2024/01/12 09:29:56;;;;;;;12.93;8.50;;;;;;;0.43;100.00;102932.88;6259170;28;20224;-66
2024/01/12 09:33:17;;;;;;;15.50;9.60;;;;;;;0.47;100.00;102935.47;6254225;28;20235;-67
2024/01/12 09:36:38;;;;;;;15.57;11.30;;;;;;;0.52;100.00;102930.97;6261639;28;20334;-67
2024/01/12 09:40:00;;;;;;;12.17;9.70;;;;;;;0.77;100.00;102929.69;6252910;28;20228;-68
2024/01/12 09:43:23;;;;;;;13.07;8.20;;;;;;;0.63;100.00;102942.31;6249191;28;20228;-67
2024/01/12 09:46:53;;;;;;;10.23;8.67;;;;;;;0.74;100.00;102955.41;6246612;28;20232;-67
2024/01/12 09:50:15;;;;;;;14.97;10.20;;;;;;;1.14;100.00;102953.91;6244671;28;20311;-66
2024/01/12 09:53:36;;;;;;;20.60;11.63;;;;;;;1.27;100.00;102962.53;6254936;28;20228;-66
2024/01/12 09:56:59;;;;;;;14.20;10.13;;;;;;;1.22;100.00;102957.28;6258909;28;20331;-67
2024/01/12 10:00:23;;;;;;;15.10;10.80;;;;;;;1.01;100.00;102959.41;6256480;28;21095;-67
2024/01/12 10:03:46;;;;;;;14.87;10.63;;;;;;;0.99;100.00;102951.47;6253763;28;20264;-67
2024/01/12 10:07:07;;;;;;;12.27;9.57;;;;;;;0.81;100.00;102943.81;6251699;28;20228;-67
2024/01/12 10:10:28;;;;;;;13.10;9.90;;;;;;;1.10;100.00;102953.97;6252352;28;20233;-68
2024/01/12 10:13:51;;;;;;;16.57;11.00;;;;;;;0.82;100.00;102959.72;6251910;28;20677;-67
2024/01/12 10:17:13;;;;;;;13.50;9.20;;;;;;;0.85;100.00;102950.81;6244697;28;20751;-68
2024/01/12 10:20:36;;;;;;;34.40;13.50;;;;;;;1.08;100.00;102954.00;6245386;28;20240;-67
2024/01/12 10:24:06;;;;;;;16.23;10.90;;;;;;;1.14;100.00;102935.31;6252040;28;20319;-68
2024/01/12 10:27:27;;;;;;;11.83;9.97;;;;;;;1.18;100.00;102930.81;6263482;28;20243;-67
2024/01/12 10:30:49;;;;;;;13.70;9.87;;;;;;;1.43;100.00;102910.88;6260369;28;20220;-68
2024/01/12 10:34:12;;;;;;;15.70;11.87;;;;;;;1.20;100.00;102913.06;6241549;28;20509;-67
2024/01/12 10:37:33;;;;;;;14.23;10.27;;;;;;;0.98;100.00;102907.22;6237336;28;20240;-68
2024/01/12 10:40:59;;;;;;;18.07;10.77;;;;;;;0.94;100.00;102899.38;6256181;28;20227;-68
2024/01/12 10:44:22;;;;;;;14.93;10.77;;;;;;;0.99;100.00;102892.19;6257959;28;20231;-67
2024/01/12 10:47:53;;;;;;;14.57;13.07;;;;;;;1.01;100.00;102882.41;6257263;28;20617;-68
2024/01/12 10:51:15;;;;;;;11.47;10.30;;;;;;;1.16;100.00;102868.88;6260592;28;20247;-67
2024/01/12 10:54:49;;;;;;;11.50;10.10;;;;;;;1.21;100.00;102872.34;6261515;28;20231;-67
2024/01/12 10:58:10;;;;;;;13.83;11.20;;;;;;;1.28;100.00;102879.28;6255384;28;20239;-68
2024/01/12 11:01:32;;;;;;;13.07;11.67;;;;;;;1.25;100.00;102874.03;6247694;28;20231;-69
2024/01/12 11:04:56;;;;;;;12.63;11.07;;;;;;;1.26;100.00;102870.44;6246818;28;20231;-69
2024/01/12 11:08:20;;;;;;;14.47;10.23;;;;;;;1.36;100.00;102861.41;6246049;28;20598;-69
2024/01/12 11:11:44;;;;;;;13.93;11.23;;;;;;;1.45;100.00;102853.25;6244449;28;20569;-68
2024/01/12 11:15:07;;;;;;;13.20;11.47;;;;;;;1.40;100.00;102849.81;6241784;28;20227;-67
2024/01/12 11:18:30;;;;;;;10.03;6.87;;;;;;;1.65;100.00;102844.91;6245938;28;20236;-68
2024/01/12 11:22:02;;;;;;;11.47;9.10;;;;;;;1.54;100.00;102845.97;6244129;28;20219;-69
2024/01/12 11:25:24;;;;;;;8.27;6.90;;;;;;;1.61;100.00;102839.66;6245362;28;20347;-69
2024/01/12 11:28:45;;;;;;;9.10;7.03;;;;;;;1.65;100.00;102840.44;6248415;28;20221;-68
2024/01/12 11:32:06;;;;;;;11.67;8.33;;;;;;;1.73;100.00;102837.66;6242599;28;20236;-68
2024/01/12 11:35:30;;;;;;;13.23;9.53;;;;;;;1.74;100.00;102844.69;6250707;28;20232;-68
2024/01/12 11:38:55;;;;;;;14.60;8.93;;;;;;;1.71;100.00;102821.72;6247846;28;20274;-67
2024/01/12 11:42:16;;;;;;;8.97;8.07;;;;;;;1.72;100.00;102826.13;6253959;28;20248;-67
2024/01/12 11:45:39;;;;;;;8.80;7.53;;;;;;;1.84;100.00;102817.00;6244752;28;20681;-68
2024/01/12 11:49:04;;;;;;;10.40;8.07;;;;;;;1.85;100.00;102822.31;6252840;28;20319;-68
2024/01/12 11:52:25;;;;;;;9.67;8.43;;;;;;;1.83;100.00;102817.94;6255574;28;20239;-68
2024/01/12 11:55:47;;;;;;;11.67;8.70;;;;;;;2.00;100.00;102808.66;6251958;28;20492;-68
2024/01/12 11:59:08;;;;;;;13.33;10.97;;;;;;;2.43;100.00;102806.78;6225005;28;20235;-66
2024/01/12 12:02:29;;;;;;;11.77;8.87;;;;;;;2.55;100.00;102800.25;6244274;28;20232;-67
2024/01/12 12:05:50;;;;;;;14.57;9.67;;;;;;;2.55;100.00;102797.59;6243025;28;20239;-67
2024/01/12 12:09:11;;;;;;;13.93;10.80;;;;;;;2.23;100.00;102802.84;6249541;28;20240;-67
2024/01/12 12:12:33;;;;;;;14.10;10.93;;;;;;;2.40;100.00;102792.63;6246893;28;20259;-67
2024/01/12 12:15:54;;;;;;;14.73;10.47;;;;;;;2.46;100.00;102796.97;6252776;28;20620;-67
2024/01/12 12:19:15;;;;;;;11.23;8.63;;;;;;;2.26;100.00;102786.78;6248697;28;20232;-67
2024/01/12 12:22:36;;;;;;;9.90;8.63;;;;;;;2.25;100.00;102777.06;6250912;28;20236;-68
2024/01/12 12:25:58;;;;;;;13.13;8.27;;;;;;;2.21;100.00;102776.25;6242014;28;20567;-69
2024/01/12 12:29:20;;;;;;;17.87;11.10;;;;;;;2.27;100.00;102776.09;6245513;28;20310;-66
2024/01/12 12:32:42;;;;;;;9.17;8.23;;;;;;;2.32;100.00;102755.59;6238612;28;20229;-67
2024/01/12 12:36:05;;;;;;;15.67;10.87;;;;;;;2.33;100.00;102759.13;6247234;28;20259;-68
2024/01/12 12:39:27;;;;;;;14.53;9.10;;;;;;;2.36;100.00;102740.41;6241649;28;20239;-68
2024/01/12 12:42:49;;;;;;;16.57;10.40;;;;;;;2.29;100.00;102742.38;6249805;28;20232;-67
2024/01/12 12:46:11;;;;;;;10.37;8.53;;;;;;;2.35;100.00;102728.03;6252983;28;20228;-67
2024/01/12 12:49:33;;;;;;;11.70;10.57;;;;;;;2.31;100.00;102721.94;6259531;28;20228;-69
2024/01/12 12:52:54;;;;;;;11.03;7.53;;;;;;;2.27;100.00;102719.38;6248566;28;20228;-69
2024/01/12 12:56:15;;;;;;;11.33;10.17;;;;;;;2.35;100.00;102725.38;6250174;28;20228;-69
2024/01/12 12:59:37;;;;;;;17.93;10.40;;;;;;;2.31;100.00;102719.28;6254978;28;20240;-68
2024/01/12 13:02:59;;;;;;;15.43;11.60;;;;;;;2.26;100.00;102715.84;6254470;28;20227;-67
2024/01/12 13:06:20;;;;;;;14.57;10.80;;;;;;;2.31;100.00;102710.41;6248534;28;20228;-68
2024/01/12 13:09:41;;;;;;;19.13;11.17;;;;;;;2.27;100.00;102706.06;6242749;28;21145;-66
2024/01/12 13:13:02;;;;;;;16.80;10.07;;;;;;;2.30;100.00;102696.22;6249586;28;20244;-68
2024/01/12 13:16:23;;;;;;;19.77;9.80;;;;;;;2.49;100.00;102696.63;6246280;28;20237;-68
2024/01/12 13:19:45;;;;;;;11.80;8.33;;;;;;;2.40;100.00;102683.53;6251543;28;20236;-68
2024/01/12 13:23:06;;;;;;;12.40;10.73;;;;;;;2.40;100.00;102687.09;6246837;28;20235;-68
2024/01/12 13:26:29;;;;;;;12.17;10.20;;;;;;;2.43;100.00;102680.81;6249457;28;20240;-68
2024/01/12 13:29:49;;;;;;;11.70;8.40;;;;;;;2.45;100.00;102681.66;6249746;28;20258;-68
2024/01/12 13:33:10;;;;;;;10.27;9.17;;;;;;;2.46;100.00;102664.78;6246246;28;20240;-69
2024/01/12 13:36:33;;;;;;;11.93;10.60;;;;;;;2.65;100.00;102662.50;6259663;28;22595;-67
2024/01/12 13:39:54;;;;;;;14.67;10.03;;;;;;;2.59;100.00;102676.81;6250621;28;20504;-67
2024/01/12 13:43:15;;;;;;;17.33;10.67;;;;;;;2.74;100.00;102686.19;6255181;28;20224;-68
2024/01/12 13:46:38;;;;;;;14.87;9.73;;;;;;;2.77;100.00;102681.66;6254438;28;20236;-68
2024/01/12 13:49:58;;;;;;;11.60;9.67;;;;;;;2.85;100.00;102670.78;6249054;28;20224;-67
2024/01/12 13:53:21;;;;;;;17.00;12.27;;;;;;;2.82;100.00;102671.75;6245388;28;20236;-68
2024/01/12 13:56:42;;;;;;;11.23;7.87;;;;;;;2.80;100.00;102662.03;6254864;28;20235;-68
2024/01/12 14:00:06;;;;;;;12.93;9.23;;;;;;;2.79;100.00;102665.63;6249660;28;20227;-67
2024/01/12 14:03:32;;;;;;;12.93;8.07;;;;;;;2.82;100.00;102669.06;6253336;28;20241;-68
2024/01/12 14:06:53;;;;;;;20.80;9.30;;;;;;;2.93;100.00;102660.78;6259481;28;20281;-69
2024/01/12 14:10:15;;;;;;;19.63;10.07;;;;;;;2.84;100.00;102655.72;6245805;28;20236;-68
2024/01/12 14:13:36;;;;;;;11.53;8.33;;;;;;;2.93;100.00;102655.47;6253856;28;20244;-68
2024/01/12 14:16:57;;;;;;;7.23;6.07;;;;;;;2.97;100.00;102665.09;6251275;28;20639;-68
2024/01/12 14:20:18;;;;;;;11.23;8.50;;;;;;;3.02;100.00;102656.09;6257220;28;20243;-69
2024/01/12 14:23:39;;;;;;;13.27;7.37;;;;;;;2.97;100.00;102660.66;6255046;28;20311;-69
2024/01/12 14:27:04;;;;;;;36.37;7.93;;;;;;;3.08;100.00;102649.69;6255250;28;20231;-67
2024/01/12 14:30:24;;;;;;;28.33;7.13;;;;;;;3.09;100.00;102654.09;6252890;28;20232;-68
2024/01/12 14:33:45;;;;;;;12.93;6.83;;;;;;;3.10;100.00;102651.41;6251891;28;20235;-67
2024/01/12 14:37:07;;;;;;;14.90;6.83;;;;;;;3.24;100.00;102645.66;6260637;28;20239;-69
2024/01/12 14:40:27;;;;;;;15.00;7.07;;;;;;;3.09;100.00;102649.63;6255073;28;20617;-68
2024/01/12 14:43:50;;;;;;;9.77;6.33;;;;;;;3.14;100.00;102639.72;6248746;28;20219;-68
2024/01/12 14:47:13;;;;;;;9.50;7.40;;;;;;;3.10;100.00;102640.75;6249452;28;20507;-68
2024/01/12 14:50:33;;;;;;;14.43;7.97;;;;;;;3.07;100.00;102635.50;6255939;28;20221;-68
2024/01/12 14:53:55;;;;;;;8.10;6.13;;;;;;;2.98;100.00;102632.25;6251592;28;20299;-68
2024/01/12 14:57:16;;;;;;;9.63;7.20;;;;;;;3.00;100.00;102630.41;6257211;28;20232;-67
2024/01/12 15:00:38;;;;;;;7.10;6.03;;;;;;;2.91;100.00;102614.69;6252755;28;20228;-68
2024/01/12 15:03:59;;;;;;;9.77;7.03;;;;;;;2.92;100.00;102617.28;6250841;28;20232;-68
2024/01/12 15:07:20;;;;;;;7.37;6.07;;;;;;;2.91;100.00;102615.56;6251275;28;20236;-68
2024/01/12 15:10:41;;;;;;;19.77;6.20;;;;;;;2.89;100.00;102611.19;6253003;28;20231;-69
2024/01/12 15:14:02;;;;;;;17.63;7.80;;;;;;;2.97;100.00;102606.50;6249532;28;20243;-68
2024/01/12 15:17:25;;;;;;;9.97;7.20;;;;;;;2.99;100.00;102610.88;6254427;28;20605;-68
2024/01/12 15:20:46;;;;;;;12.97;5.50;;;;;;;3.03;100.00;102604.53;6243280;28;20227;-68